Time;durP1;ratioP1;P1;durP2;ratioP2;P2;SDS_P1;SDS_P2;PMS_P1;PMS_P2;Temp;Humidity;BMP_temperature;BMP_pressure;BME280_temperature;BME280_humidity;BME280_pressure;Samples;Min_cycle;Max_cycle;Signal;HPM_P1;HPM_P2
2021/04/24 00:01:45;;;;;;;12.50;7.85;;;;;;;8.90;52.33;100058.81;4955416;29;20643;-72
2021/04/24 00:04:11;;;;;;;9.63;7.90;;;;;;;8.69;52.94;100057.94;4955169;28;20319;-71
2021/04/24 00:06:38;;;;;;;12.52;7.78;;;;;;;8.68;53.12;100064.22;4955016;28;20594;-72
2021/04/24 00:09:06;;;;;;;15.07;7.88;;;;;;;8.57;53.41;100062.03;4955032;29;20205;-71
2021/04/24 00:11:32;;;;;;;9.95;7.25;;;;;;;8.56;53.36;100058.44;4954858;29;20245;-72
2021/04/24 00:13:59;;;;;;;13.70;7.85;;;;;;;8.44;53.83;100058.09;4955314;28;20197;-71
2021/04/24 00:16:25;;;;;;;16.02;8.32;;;;;;;8.51;53.83;100063.13;4955395;29;20209;-70
2021/04/24 00:18:51;;;;;;;9.65;7.50;;;;;;;8.72;53.13;100061.34;4954943;28;20330;-71
2021/04/24 00:21:18;;;;;;;8.52;6.38;;;;;;;8.87;52.46;100057.13;4954970;28;20671;-70
2021/04/24 00:23:45;;;;;;;8.00;7.13;;;;;;;8.95;52.07;100063.06;4954552;29;20260;-70
2021/04/24 00:26:11;;;;;;;8.93;6.53;;;;;;;9.04;51.68;100052.81;4954815;28;20192;-71
2021/04/24 00:28:43;;;;;;;9.30;6.10;;;;;;;8.77;52.55;100056.66;4954540;28;20249;-71
2021/04/24 00:31:09;;;;;;;12.40;7.00;;;;;;;8.67;53.18;100057.13;4954621;29;20293;-71
2021/04/24 00:33:38;;;;;;;8.77;6.28;;;;;;;8.71;53.08;100064.13;4954921;29;20193;-70
2021/04/24 00:36:05;;;;;;;9.18;7.70;;;;;;;8.73;52.69;100068.47;4954641;28;20238;-72
2021/04/24 00:38:31;;;;;;;9.50;6.93;;;;;;;8.91;52.15;100064.13;4954673;29;20224;-71
2021/04/24 00:40:58;;;;;;;8.65;6.53;;;;;;;8.86;52.38;100057.19;4954707;29;20190;-71
2021/04/24 00:43:24;;;;;;;14.63;7.00;;;;;;;8.68;53.04;100062.44;4954849;28;20215;-70
2021/04/24 00:45:50;;;;;;;9.35;6.80;;;;;;;8.86;52.68;100057.19;4958412;29;20220;-72
2021/04/24 00:48:16;;;;;;;7.65;6.82;;;;;;;8.81;52.55;100046.66;4958379;28;20661;-71
2021/04/24 00:50:43;;;;;;;10.35;6.70;;;;;;;8.81;52.63;100060.06;4958442;28;20190;-71
2021/04/24 00:53:11;;;;;;;9.45;6.15;;;;;;;8.50;53.69;100055.13;4958340;28;20694;-72
2021/04/24 00:55:40;;;;;;;9.85;7.22;;;;;;;8.39;54.07;100049.31;4958033;29;20248;-71
2021/04/24 00:58:14;;;;;;;11.25;7.45;;;;;;;8.36;54.27;100043.13;4958070;29;20603;-72
2021/04/24 01:00:41;;;;;;;11.68;7.60;;;;;;;8.30;54.47;100046.09;4958139;29;20201;-71
2021/04/24 01:03:07;;;;;;;8.98;6.45;;;;;;;8.28;54.56;100047.09;4958402;28;20633;-71
2021/04/24 01:05:37;;;;;;;8.15;6.10;;;;;;;8.43;53.95;100043.78;4957920;29;20328;-71
2021/04/24 01:08:04;;;;;;;10.57;6.47;;;;;;;8.31;54.33;100045.16;4957815;28;20244;-71
2021/04/24 01:10:32;;;;;;;11.02;6.63;;;;;;;8.29;54.78;100048.84;4957827;29;20212;-72
2021/04/24 01:12:58;;;;;;;7.90;6.13;;;;;;;8.19;55.00;100047.50;4958343;29;20198;-71
2021/04/24 01:15:25;;;;;;;10.95;6.85;;;;;;;8.10;55.27;100041.56;4958209;29;20535;-72
2021/04/24 01:17:52;;;;;;;10.13;7.00;;;;;;;8.02;55.42;100040.97;4957463;29;20288;-70
2021/04/24 01:20:19;;;;;;;10.32;7.00;;;;;;;7.94;55.55;100041.31;4957650;29;20221;-72
2021/04/24 01:22:50;;;;;;;12.52;7.78;;;;;;;7.87;56.13;100033.59;4958100;29;20265;-72
2021/04/24 01:25:19;;;;;;;9.48;6.20;;;;;;;7.83;56.22;100026.59;4957918;29;20189;-71
2021/04/24 01:27:53;;;;;;;10.32;6.88;;;;;;;7.64;56.90;100029.09;4957480;29;20213;-72
2021/04/24 01:30:25;;;;;;;10.25;6.95;;;;;;;7.79;56.63;100028.50;4957780;29;20192;-71
2021/04/24 01:32:52;;;;;;;9.10;6.32;;;;;;;7.85;56.53;100036.31;4957675;28;20189;-72
2021/04/24 01:35:24;;;;;;;9.98;6.60;;;;;;;7.78;56.52;100026.78;4957481;28;20184;-72
2021/04/24 01:37:51;;;;;;;9.02;6.60;;;;;;;7.88;56.39;100032.63;4957274;28;20186;-71
2021/04/24 01:40:19;;;;;;;7.22;6.10;;;;;;;7.79;56.52;100030.31;4957574;29;20212;-71
2021/04/24 01:42:48;;;;;;;8.43;6.70;;;;;;;7.59;57.28;100018.56;4957794;29;20224;-71
2021/04/24 01:45:17;;;;;;;9.43;6.25;;;;;;;7.36;58.35;100032.00;4957579;28;20546;-70
2021/04/24 01:47:44;;;;;;;9.20;6.40;;;;;;;7.30;58.55;100022.38;4957344;29;20628;-71
2021/04/24 01:50:13;;;;;;;9.02;6.25;;;;;;;7.31;58.68;100029.50;4957296;29;20642;-71
2021/04/24 01:52:42;;;;;;;7.18;6.18;;;;;;;7.04;59.80;100024.22;4957298;29;20204;-72
2021/04/24 01:55:12;;;;;;;8.73;6.03;;;;;;;7.05;59.64;100025.97;4956989;28;20193;-71
2021/04/24 01:57:40;;;;;;;12.27;6.95;;;;;;;6.96;60.13;100012.03;4956636;29;20192;-72
2021/04/24 02:00:08;;;;;;;9.57;6.70;;;;;;;6.80;60.83;100017.94;4957061;28;20209;-71
2021/04/24 02:02:34;;;;;;;15.93;6.22;;;;;;;6.80;61.02;100025.13;4957534;29;20639;-71
2021/04/24 02:05:02;;;;;;;14.15;6.15;;;;;;;6.75;61.13;100014.56;4957039;28;20235;-71
2021/04/24 02:07:28;;;;;;;11.15;6.70;;;;;;;6.75;60.99;100009.22;4956746;29;20296;-71
2021/04/24 02:09:54;;;;;;;10.13;7.00;;;;;;;6.77;61.16;100010.03;4957191;28;20193;-72
2021/04/24 02:12:21;;;;;;;11.93;7.25;;;;;;;6.81;60.85;100008.13;4956680;28;20291;-72
2021/04/24 02:14:51;;;;;;;8.27;6.80;;;;;;;6.84;60.77;100014.25;4956467;29;20189;-71
2021/04/24 02:17:21;;;;;;;10.02;6.55;;;;;;;6.96;60.28;100002.19;4956945;29;20694;-71
2021/04/24 02:19:49;;;;;;;8.45;7.10;;;;;;;6.89;60.52;100003.38;4957350;29;20609;-71
2021/04/24 02:22:15;;;;;;;10.05;6.70;;;;;;;7.12;59.94;100007.84;4957542;28;20193;-71
2021/04/24 02:24:45;;;;;;;10.60;7.07;;;;;;;7.09;59.98;100013.34;4956661;29;20193;-71
2021/04/24 02:27:12;;;;;;;13.25;7.22;;;;;;;7.03;59.88;100008.22;4956641;29;20282;-73
2021/04/24 02:29:40;;;;;;;9.15;6.78;;;;;;;7.12;59.55;100010.53;4956422;29;20196;-71
2021/04/24 02:32:08;;;;;;;10.18;7.05;;;;;;;7.12;59.54;100007.00;4956711;29;20192;-71
2021/04/24 02:34:34;;;;;;;9.93;7.13;;;;;;;7.03;60.09;100009.09;4956536;29;20192;-71
2021/04/24 02:37:01;;;;;;;10.10;6.03;;;;;;;7.30;59.22;100004.50;4956814;28;20205;-71
2021/04/24 02:39:32;;;;;;;9.75;6.63;;;;;;;7.39;58.92;100005.06;4956849;29;20228;-70
2021/04/24 02:41:58;;;;;;;11.95;6.65;;;;;;;7.31;58.97;100008.06;4956452;29;20582;-71
2021/04/24 02:44:24;;;;;;;13.32;7.72;;;;;;;7.35;59.02;100006.13;4956041;29;20292;-72
2021/04/24 02:46:51;;;;;;;10.38;6.82;;;;;;;7.40;58.61;100006.84;4955740;28;20236;-71
2021/04/24 02:49:18;;;;;;;15.27;6.43;;;;;;;7.53;58.33;100005.44;4956364;29;20216;-72
2021/04/24 02:51:44;;;;;;;13.77;7.10;;;;;;;7.46;58.39;100001.22;4956792;29;20189;-70
2021/04/24 02:54:10;;;;;;;9.75;6.75;;;;;;;7.25;59.09;99995.75;4956246;28;20216;-71
2021/04/24 02:56:36;;;;;;;9.07;7.05;;;;;;;7.36;59.11;100006.06;4956418;28;20283;-70
2021/04/24 02:59:03;;;;;;;9.20;6.38;;;;;;;7.11;59.96;100000.78;4956080;29;20608;-72
2021/04/24 03:01:30;;;;;;;9.70;6.43;;;;;;;7.11;60.15;100000.78;4956229;29;20622;-71
2021/04/24 03:03:57;;;;;;;9.20;5.85;;;;;;;6.92;61.00;100003.28;4955673;28;20251;-72
2021/04/24 03:06:23;;;;;;;9.80;6.78;;;;;;;6.87;60.79;100003.44;4955577;28;20196;-70
2021/04/24 03:08:49;;;;;;;9.57;7.05;;;;;;;6.91;60.55;99993.47;4956053;29;20241;-73
2021/04/24 03:11:15;;;;;;;11.15;6.60;;;;;;;7.16;60.04;100001.47;4956068;28;20193;-70
2021/04/24 03:13:41;;;;;;;7.93;6.13;;;;;;;6.95;60.53;99996.94;4956005;28;20191;-71
2021/04/24 03:16:08;;;;;;;7.20;5.90;;;;;;;6.81;61.07;99997.44;4955972;29;20667;-72
2021/04/24 03:18:34;;;;;;;13.15;8.43;;;;;;;6.82;61.04;99993.81;4955771;29;20185;-72
2021/04/24 03:21:01;;;;;;;11.05;6.68;;;;;;;6.66;61.52;99991.69;4955912;28;20236;-72
2021/04/24 03:23:27;;;;;;;13.77;6.50;;;;;;;6.92;60.84;99991.66;4955853;29;20702;-72
2021/04/24 03:25:53;;;;;;;8.00;6.55;;;;;;;6.76;61.28;100002.06;4956659;29;20574;-72
2021/04/24 03:28:19;;;;;;;12.75;7.32;;;;;;;6.85;61.14;99994.59;4955868;28;20304;-71
2021/04/24 03:30:45;;;;;;;13.15;6.50;;;;;;;6.71;61.51;100007.56;4955571;28;20287;-71
2021/04/24 03:33:13;;;;;;;9.93;6.43;;;;;;;6.65;61.83;100005.13;4955594;29;20197;-71
2021/04/24 03:35:39;;;;;;;24.48;8.45;;;;;;;6.67;61.63;100008.59;4955651;29;20281;-71
2021/04/24 03:38:07;;;;;;;13.02;7.30;;;;;;;6.63;61.58;100009.66;4955365;29;20196;-71
2021/04/24 03:40:33;;;;;;;13.38;6.90;;;;;;;6.72;61.37;100006.66;4955333;29;20281;-72
2021/04/24 03:42:59;;;;;;;10.43;6.30;;;;;;;6.69;61.42;100012.09;4955934;28;20648;-72
2021/04/24 03:45:25;;;;;;;12.63;7.10;;;;;;;6.72;61.30;100008.47;4955784;29;20283;-72
2021/04/24 03:47:53;;;;;;;11.00;6.55;;;;;;;6.87;60.64;100006.13;4955472;29;20660;-71
2021/04/24 03:50:21;;;;;;;11.65;6.25;;;;;;;6.69;61.32;100014.78;4955722;29;20307;-71
2021/04/24 03:52:48;;;;;;;8.85;6.63;;;;;;;6.64;61.26;100014.06;4955230;29;20224;-71
2021/04/24 03:55:16;;;;;;;9.35;6.78;;;;;;;6.71;61.18;100012.94;4955495;29;20201;-71
2021/04/24 03:57:43;;;;;;;11.32;7.40;;;;;;;6.68;61.21;100015.72;4955569;29;20180;-71
2021/04/24 04:00:10;;;;;;;6.82;5.65;;;;;;;6.83;60.79;100006.28;4955139;29;20204;-70
2021/04/24 04:02:47;;;;;;;10.98;7.18;;;;;;;6.55;61.74;100007.25;4955866;28;20295;-72
2021/04/24 04:05:14;;;;;;;9.73;7.60;;;;;;;6.50;62.01;100009.22;4955338;29;20264;-72
2021/04/24 04:07:41;;;;;;;15.15;7.30;;;;;;;6.51;62.12;100008.28;4955091;29;20292;-72
2021/04/24 04:10:08;;;;;;;12.50;7.50;;;;;;;6.48;62.21;100021.78;4955161;29;20283;-72
2021/04/24 04:12:35;;;;;;;9.85;7.10;;;;;;;6.64;61.64;100014.06;4954942;28;20272;-70
2021/04/24 04:15:02;;;;;;;9.23;6.70;;;;;;;6.61;61.56;100020.41;4955174;29;20627;-71
2021/04/24 04:17:28;;;;;;;13.38;7.50;;;;;;;6.70;61.53;100032.59;4955020;28;20181;-71
2021/04/24 04:19:54;;;;;;;13.10;8.15;;;;;;;6.84;60.91;100032.09;4957609;28;20537;-71
2021/04/24 04:22:20;;;;;;;11.60;8.20;;;;;;;6.86;60.76;100028.44;4959098;28;20683;-71
2021/04/24 04:24:46;;;;;;;12.38;7.60;;;;;;;6.90;60.62;100023.88;4958801;28;20620;-70
2021/04/24 04:27:12;;;;;;;11.38;7.53;;;;;;;6.56;61.70;100032.22;4958887;29;20208;-71
2021/04/24 04:29:39;;;;;;;9.90;7.60;;;;;;;6.75;61.60;100040.47;4958840;28;20600;-71
2021/04/24 04:32:06;;;;;;;15.02;7.22;;;;;;;6.81;61.37;100038.44;4958671;29;20276;-71
2021/04/24 04:34:32;;;;;;;10.57;7.38;;;;;;;6.79;61.74;100029.59;4959285;29;20691;-71
2021/04/24 04:36:58;;;;;;;11.45;7.90;;;;;;;6.80;61.71;100036.69;4958562;29;20332;-71
2021/04/24 04:39:25;;;;;;;17.90;8.15;;;;;;;6.76;61.81;100031.50;4958674;29;20279;-71
2021/04/24 04:41:51;;;;;;;14.00;7.95;;;;;;;6.71;62.26;100034.34;4958148;29;20188;-70
2021/04/24 04:44:17;;;;;;;12.07;8.18;;;;;;;6.51;62.85;100037.69;4958788;28;20346;-70
2021/04/24 04:46:44;;;;;;;10.85;7.80;;;;;;;6.47;63.20;100041.44;4958174;29;20189;-71
2021/04/24 04:49:10;;;;;;;11.70;7.15;;;;;;;6.69;62.67;100036.19;4958050;28;20228;-71
2021/04/24 04:51:36;;;;;;;14.77;8.13;;;;;;;6.65;62.53;100042.59;4958254;29;20715;-72
2021/04/24 04:54:02;;;;;;;17.08;7.85;;;;;;;6.69;62.76;100049.56;4958469;29;20193;-71
2021/04/24 04:56:29;;;;;;;12.27;7.50;;;;;;;6.78;62.65;100046.56;4959067;29;20651;-71
2021/04/24 04:58:55;;;;;;;12.82;7.70;;;;;;;7.01;62.24;100042.19;4958284;29;20280;-72
2021/04/24 05:01:21;;;;;;;11.85;7.88;;;;;;;7.16;61.25;100036.28;4958171;29;20209;-71
2021/04/24 05:03:48;;;;;;;13.02;8.20;;;;;;;7.16;61.55;100035.41;4958013;29;20231;-71
2021/04/24 05:06:14;;;;;;;13.02;9.05;;;;;;;7.04;62.03;100042.09;4957887;29;20543;-71
2021/04/24 05:08:40;;;;;;;13.43;7.82;;;;;;;7.00;62.17;100037.78;4957272;29;20217;-71
2021/04/24 05:11:07;;;;;;;13.88;8.10;;;;;;;7.08;61.99;100038.38;4958216;29;20189;-71
2021/04/24 05:13:35;;;;;;;14.43;8.48;;;;;;;7.30;61.11;100035.75;4958521;29;20212;-72
2021/04/24 05:16:01;;;;;;;15.07;7.72;;;;;;;7.27;61.27;100042.09;4957467;29;20683;-71
2021/04/24 05:18:27;;;;;;;13.60;7.78;;;;;;;7.31;61.34;100037.53;4957388;29;20648;-71
2021/04/24 05:20:54;;;;;;;14.55;8.73;;;;;;;7.46;60.50;100042.31;4957793;29;20550;-70
2021/04/24 05:23:21;;;;;;;15.10;7.93;;;;;;;7.48;60.30;100031.50;4957280;29;20197;-70
2021/04/24 05:25:47;;;;;;;8.20;6.82;;;;;;;7.64;59.73;100034.47;4957416;29;20280;-72
2021/04/24 05:28:14;;;;;;;11.32;8.88;;;;;;;7.62;59.97;100042.59;4957686;29;20291;-70
2021/04/24 05:30:40;;;;;;;11.80;7.30;;;;;;;7.70;59.62;100040.47;4957469;28;20200;-71
2021/04/24 05:33:07;;;;;;;13.10;7.97;;;;;;;7.98;58.84;100042.03;4957530;28;20609;-71
2021/04/24 05:35:33;;;;;;;14.68;8.77;;;;;;;8.05;58.42;100046.25;4957659;28;20232;-72
2021/04/24 05:38:00;;;;;;;11.07;7.65;;;;;;;8.04;58.06;100041.78;4957610;29;20596;-70
2021/04/24 05:40:27;;;;;;;11.35;7.63;;;;;;;8.24;57.44;100032.06;4957394;29;20197;-71
2021/04/24 05:42:53;;;;;;;8.88;6.70;;;;;;;8.39;56.42;100035.91;4957493;29;20229;-71
2021/04/24 05:45:19;;;;;;;12.23;7.20;;;;;;;8.46;55.99;100041.00;4956954;29;20274;-71
2021/04/24 05:47:47;;;;;;;14.10;8.45;;;;;;;8.45;55.82;100041.06;4957263;28;20311;-71
2021/04/24 05:50:16;;;;;;;12.32;8.43;;;;;;;8.44;55.91;100047.38;4957244;29;20695;-73
2021/04/24 05:52:42;;;;;;;11.38;7.47;;;;;;;8.56;55.00;100050.38;4956809;29;20189;-71
2021/04/24 05:55:10;;;;;;;11.60;7.30;;;;;;;8.73;54.64;100044.31;4957478;29;20689;-72
2021/04/24 05:57:37;;;;;;;11.50;7.85;;;;;;;8.92;53.93;100044.38;4957208;29;20243;-72
2021/04/24 06:00:06;;;;;;;11.02;6.80;;;;;;;8.92;53.74;100051.56;4957391;29;20188;-72
2021/04/24 06:02:34;;;;;;;16.40;7.57;;;;;;;9.01;53.41;100050.28;4957260;29;20660;-70
2021/04/24 06:05:00;;;;;;;10.35;7.20;;;;;;;8.98;53.53;100048.59;4955986;28;20234;-72
2021/04/24 06:07:26;;;;;;;12.75;7.25;;;;;;;9.17;52.99;100052.19;4956654;29;20205;-71
2021/04/24 06:09:52;;;;;;;10.07;6.97;;;;;;;9.43;51.99;100055.53;4956698;28;20615;-71
2021/04/24 06:12:19;;;;;;;9.20;7.13;;;;;;;9.51;51.62;100052.47;4956978;29;20223;-71
2021/04/24 06:14:45;;;;;;;10.23;6.60;;;;;;;9.53;51.56;100048.75;4956597;28;20274;-70
2021/04/24 06:17:11;;;;;;;12.23;7.35;;;;;;;9.69;51.04;100051.59;4956384;29;20209;-71
2021/04/24 06:19:37;;;;;;;8.98;7.15;;;;;;;9.76;50.87;100047.66;4956371;29;20191;-70
2021/04/24 06:22:03;;;;;;;9.07;6.60;;;;;;;10.03;50.01;100042.78;4948856;29;20282;-71
2021/04/24 06:24:30;;;;;;;11.32;6.68;;;;;;;10.19;49.54;100048.28;4956229;29;20207;-73
2021/04/24 06:26:56;;;;;;;11.38;7.53;;;;;;;10.26;49.51;100053.38;4956770;28;20301;-71
2021/04/24 06:29:23;;;;;;;9.93;7.03;;;;;;;10.40;48.89;100051.78;4956497;29;20278;-72
2021/04/24 06:31:49;;;;;;;11.27;8.15;;;;;;;10.44;48.80;100050.66;4955866;29;20276;-73
2021/04/24 06:34:15;;;;;;;11.27;10.15;;;;;;;10.42;48.84;100046.28;4956192;28;20211;-72
2021/04/24 06:36:41;;;;;;;10.13;7.70;;;;;;;10.43;48.72;100046.22;4956327;29;20191;-71
2021/04/24 06:39:08;;;;;;;11.63;8.00;;;;;;;10.52;48.51;100041.34;4956018;28;20227;-71
2021/04/24 06:41:34;;;;;;;10.55;6.97;;;;;;;10.49;48.50;100037.00;4955588;28;20642;-71
2021/04/24 06:44:00;;;;;;;10.65;8.18;;;;;;;10.44;48.60;100041.72;4956125;29;20772;-71
2021/04/24 06:46:28;;;;;;;11.88;6.88;;;;;;;10.58;48.22;100043.69;4956185;29;20198;-70
2021/04/24 06:48:54;;;;;;;12.10;7.40;;;;;;;10.74;47.98;100041.09;4955732;29;20729;-71
2021/04/24 06:51:20;;;;;;;12.38;8.25;;;;;;;10.90;47.68;100044.75;4955944;28;20203;-70
2021/04/24 06:53:46;;;;;;;11.93;7.32;;;;;;;11.02;47.20;100038.69;4956082;28;20613;-71
2021/04/24 06:56:12;;;;;;;12.27;6.60;;;;;;;11.07;46.99;100033.06;4956054;29;20696;-72
2021/04/24 06:58:38;;;;;;;15.60;7.05;;;;;;;11.12;47.01;100033.69;4955705;29;20274;-71
2021/04/24 07:01:05;;;;;;;14.25;7.75;;;;;;;11.21;46.74;100029.63;4955799;29;20569;-71
2021/04/24 07:03:32;;;;;;;13.25;7.53;;;;;;;11.33;46.53;100031.69;4955483;29;20199;-70
2021/04/24 07:05:58;;;;;;;10.50;6.97;;;;;;;11.40;46.32;100038.47;4955089;29;20319;-71
2021/04/24 07:08:24;;;;;;;14.68;6.90;;;;;;;11.47;46.08;100039.88;4955121;29;20247;-72
2021/04/24 07:10:51;;;;;;;11.30;6.75;;;;;;;11.58;45.77;100038.44;4955699;29;20539;-71
2021/04/24 07:13:17;;;;;;;14.07;7.13;;;;;;;11.70;45.56;100035.03;4955513;29;20536;-70
2021/04/24 07:15:43;;;;;;;15.18;7.40;;;;;;;11.75;45.27;100030.25;4955066;29;20197;-71
2021/04/24 07:18:09;;;;;;;11.23;6.85;;;;;;;11.93;45.28;100033.75;4955399;29;20201;-72
2021/04/24 07:20:36;;;;;;;10.27;7.05;;;;;;;12.09;44.65;100031.06;4955701;28;20272;-71
2021/04/24 07:23:02;;;;;;;8.10;6.18;;;;;;;12.10;44.77;100028.28;4955335;29;20371;-72
2021/04/24 07:25:29;;;;;;;8.68;6.40;;;;;;;12.27;44.29;100029.13;4955208;28;20639;-72
2021/04/24 07:27:55;;;;;;;10.30;6.28;;;;;;;12.29;44.13;100021.81;4955168;29;20795;-71
2021/04/24 07:30:22;;;;;;;9.35;6.07;;;;;;;12.41;43.87;100018.38;4954479;29;20239;-72
2021/04/24 07:32:48;;;;;;;10.30;5.90;;;;;;;12.57;43.44;100018.31;4955353;29;20192;-71
2021/04/24 07:35:15;;;;;;;12.15;6.90;;;;;;;12.77;43.26;100021.69;4955630;29;20299;-71
2021/04/24 07:37:42;;;;;;;13.15;5.80;;;;;;;12.82;43.04;100017.75;4955272;29;20211;-72
2021/04/24 07:40:14;;;;;;;8.85;6.05;;;;;;;12.98;42.65;100023.09;4955344;28;20631;-71
2021/04/24 07:42:40;;;;;;;10.02;6.65;;;;;;;12.98;42.59;100025.78;4955108;29;20263;-70
2021/04/24 07:45:07;;;;;;;11.35;6.75;;;;;;;13.11;42.41;100024.06;4954769;29;20279;-71
2021/04/24 07:47:34;;;;;;;10.05;6.53;;;;;;;13.33;41.72;100026.31;4954895;29;20255;-71
2021/04/24 07:50:00;;;;;;;9.98;7.00;;;;;;;13.53;41.44;100022.34;4954804;28;20212;-71
2021/04/24 07:52:26;;;;;;;11.10;6.35;;;;;;;13.56;41.20;100024.00;4954923;28;20204;-71
2021/04/24 07:54:54;;;;;;;12.25;7.28;;;;;;;13.61;41.08;100012.88;4958774;29;20642;-70
2021/04/24 07:57:20;;;;;;;7.90;6.30;;;;;;;14.02;40.57;100017.44;4959054;28;20696;-72
2021/04/24 07:59:46;;;;;;;10.65;6.40;;;;;;;14.10;40.24;100020.53;4959052;28;20259;-73
2021/04/24 08:02:13;;;;;;;10.85;6.60;;;;;;;14.06;40.34;100018.97;4959232;29;20208;-72
2021/04/24 08:04:39;;;;;;;16.48;6.63;;;;;;;14.44;39.76;100012.84;4958819;28;20754;-72
2021/04/24 08:07:07;;;;;;;8.05;5.60;;;;;;;14.27;39.86;100011.25;4958671;29;20632;-71
2021/04/24 08:09:33;;;;;;;11.10;6.13;;;;;;;14.53;39.55;100014.94;4958628;29;20189;-71
2021/04/24 08:12:00;;;;;;;10.70;6.85;;;;;;;14.68;39.21;100011.22;4958978;29;20236;-72
2021/04/24 08:14:27;;;;;;;6.50;5.45;;;;;;;14.80;38.86;100006.78;4958326;28;20216;-72
2021/04/24 08:16:53;;;;;;;6.85;6.05;;;;;;;14.67;38.81;100003.19;4958449;28;20193;-71
2021/04/24 08:19:20;;;;;;;19.00;10.50;;;;;;;14.76;39.03;100013.38;4958474;28;20213;-72
2021/04/24 08:21:46;;;;;;;8.68;6.18;;;;;;;14.85;38.58;100006.47;4958717;29;20331;-72
2021/04/24 08:24:12;;;;;;;9.20;5.57;;;;;;;14.91;37.87;100011.47;4958719;28;20296;-71
2021/04/24 08:26:39;;;;;;;9.23;5.28;;;;;;;15.02;37.85;100006.16;4958497;28;20196;-71
2021/04/24 08:29:07;;;;;;;8.95;5.60;;;;;;;15.08;37.47;100013.88;4958640;28;20234;-71
2021/04/24 08:31:34;;;;;;;9.45;5.75;;;;;;;15.28;37.70;100012.44;4957673;29;20185;-72
2021/04/24 08:34:00;;;;;;;6.95;5.35;;;;;;;15.37;37.23;100022.63;4958161;28;20223;-71
2021/04/24 08:36:26;;;;;;;14.95;6.20;;;;;;;15.33;37.11;100013.00;4958024;28;20207;-71
2021/04/24 08:38:53;;;;;;;8.35;5.50;;;;;;;15.29;37.28;100010.63;4957967;28;20202;-71
2021/04/24 08:41:19;;;;;;;7.07;4.95;;;;;;;15.35;37.22;100012.88;4957827;28;20681;-71
2021/04/24 08:43:45;;;;;;;8.32;6.15;;;;;;;15.52;36.67;100011.69;4958450;29;20635;-72
2021/04/24 08:46:15;;;;;;;9.10;5.50;;;;;;;15.60;36.45;100010.16;4957554;29;20206;-71
2021/04/24 08:48:41;;;;;;;10.30;5.93;;;;;;;15.81;36.09;100006.88;4958251;29;20298;-72
2021/04/24 08:51:07;;;;;;;10.40;6.70;;;;;;;15.84;35.56;100007.50;4958024;29;20592;-73
2021/04/24 08:53:34;;;;;;;7.88;5.00;;;;;;;15.95;35.74;100005.84;4957836;29;20191;-72
2021/04/24 08:56:00;;;;;;;9.55;4.95;;;;;;;15.82;35.54;100006.75;4957919;29;20298;-72
2021/04/24 08:58:26;;;;;;;9.55;6.20;;;;;;;16.05;34.72;99999.63;4958438;29;20274;-72
2021/04/24 09:00:53;;;;;;;6.75;5.65;;;;;;;15.95;35.26;100003.16;4957128;29;20207;-71
2021/04/24 09:03:21;;;;;;;10.15;5.55;;;;;;;16.05;34.49;99999.63;4957865;29;20290;-72
2021/04/24 09:05:48;;;;;;;8.10;5.15;;;;;;;15.88;34.77;100002.72;4956635;28;20251;-72
2021/04/24 09:08:14;;;;;;;10.05;5.82;;;;;;;16.18;34.39;100004.13;4957799;29;20208;-70
2021/04/24 09:10:42;;;;;;;11.60;6.22;;;;;;;16.31;34.20;99998.66;4958232;28;20201;-71
2021/04/24 09:13:10;;;;;;;8.45;4.70;;;;;;;16.43;33.97;99992.28;4957736;29;20208;-72
2021/04/24 09:15:36;;;;;;;10.50;5.40;;;;;;;16.41;33.90;99991.53;4957919;28;20192;-71
2021/04/24 09:18:04;;;;;;;6.72;5.05;;;;;;;16.43;33.45;99984.13;4957030;29;20263;-72
2021/04/24 09:20:33;;;;;;;6.03;4.95;;;;;;;16.51;33.03;99992.56;4957571;28;20250;-72
2021/04/24 09:23:05;;;;;;;7.18;5.10;;;;;;;16.72;33.02;99990.03;4957303;29;20643;-71
2021/04/24 09:25:38;;;;;;;6.05;4.90;;;;;;;16.75;32.39;99986.22;4957523;28;20715;-71
2021/04/24 09:28:06;;;;;;;7.05;5.22;;;;;;;16.97;32.57;99985.44;4957714;29;20213;-70
2021/04/24 09:30:34;;;;;;;11.40;5.80;;;;;;;17.18;32.50;99975.56;4957879;29;20259;-71
2021/04/24 09:33:09;;;;;;;9.98;6.00;;;;;;;17.12;31.98;99978.78;4957413;29;20276;-72
2021/04/24 09:35:48;;;;;;;12.02;5.90;;;;;;;16.91;32.34;99972.31;4957184;29;20191;-71
2021/04/24 09:38:20;;;;;;;13.07;6.95;;;;;;;17.07;32.17;99979.16;4957508;28;20219;-72
2021/04/24 09:41:07;;;;;;;13.13;6.53;;;;;;;17.16;31.60;99965.78;4957749;28;20393;-72
2021/04/24 09:44:00;;;;;;;11.27;6.50;;;;;;;17.25;31.72;99971.38;4957032;29;20220;-72
2021/04/24 09:46:29;;;;;;;10.18;5.65;;;;;;;17.16;31.97;99957.63;4957324;29;20197;-71
2021/04/24 09:49:15;;;;;;;9.48;6.60;;;;;;;17.32;31.19;99958.16;4957258;29;20664;-72
2021/04/24 09:51:45;;;;;;;8.90;5.93;;;;;;;17.42;31.11;99959.13;4957405;29;20185;-72
2021/04/24 09:54:11;;;;;;;12.85;7.38;;;;;;;17.50;31.67;99951.22;4956567;29;20185;-71
2021/04/24 09:56:38;;;;;;;9.57;5.55;;;;;;;17.66;31.59;99956.28;4957146;29;20705;-72
2021/04/24 09:59:05;;;;;;;10.40;6.97;;;;;;;17.11;31.62;99957.13;4957082;29;20291;-72
2021/04/24 10:01:33;;;;;;;7.75;5.72;;;;;;;17.01;32.09;99948.84;4956168;29;20247;-72
2021/04/24 10:04:01;;;;;;;7.82;5.90;;;;;;;17.15;32.01;99939.59;4956219;29;20240;-72
2021/04/24 10:06:47;;;;;;;8.00;6.53;;;;;;;17.32;31.49;99930.94;4957076;28;20226;-71
2021/04/24 10:09:37;;;;;;;12.77;7.22;;;;;;;17.62;31.23;99938.44;4956612;28;20635;-71
2021/04/24 10:12:11;;;;;;;13.48;7.35;;;;;;;17.91;30.82;99930.63;4956666;28;20196;-70
2021/04/24 10:14:40;;;;;;;10.55;6.53;;;;;;;17.80;31.01;99936.06;4956377;28;20292;-72
2021/04/24 10:17:08;;;;;;;10.23;7.32;;;;;;;17.89;30.73;99931.75;4955725;28;20647;-73
2021/04/24 10:19:36;;;;;;;10.48;6.47;;;;;;;18.04;30.41;99930.44;4956782;29;20193;-72
2021/04/24 10:22:04;;;;;;;7.38;5.85;;;;;;;17.65;30.98;99930.03;4956324;28;20208;-72
2021/04/24 10:24:31;;;;;;;11.07;6.53;;;;;;;17.95;31.13;99927.63;4956221;28;20571;-72
2021/04/24 10:26:58;;;;;;;8.02;5.95;;;;;;;17.84;31.31;99914.91;4956080;28;20300;-71
2021/04/24 10:29:25;;;;;;;8.60;6.30;;;;;;;17.57;30.87;99927.09;4956307;28;20584;-72
2021/04/24 10:31:52;;;;;;;11.77;6.80;;;;;;;17.80;31.14;99918.88;4956718;28;20659;-72
2021/04/24 10:34:19;;;;;;;9.93;6.88;;;;;;;17.95;30.69;99928.50;4956483;28;20219;-71
2021/04/24 10:36:48;;;;;;;8.82;6.25;;;;;;;18.27;30.43;99919.44;4956102;29;20731;-72
2021/04/24 10:39:20;;;;;;;8.85;6.20;;;;;;;18.46;30.44;99916.91;4955755;28;20284;-72
2021/04/24 10:41:56;;;;;;;11.82;7.50;;;;;;;18.62;29.37;99915.56;4956128;29;20599;-72
2021/04/24 10:44:23;;;;;;;11.80;6.93;;;;;;;18.51;29.47;99920.09;4955769;29;20328;-72
2021/04/24 10:46:51;;;;;;;10.48;7.28;;;;;;;18.05;29.74;99907.66;4955883;29;20224;-71
2021/04/24 10:49:35;;;;;;;8.75;6.32;;;;;;;18.30;29.53;99905.59;4955774;29;20674;-73
2021/04/24 10:52:18;;;;;;;9.18;6.93;;;;;;;18.09;28.29;99900.06;4956148;29;20196;-71
2021/04/24 10:55:04;;;;;;;8.55;6.35;;;;;;;18.36;28.86;99899.63;4956038;29;20538;-71
2021/04/24 10:57:42;;;;;;;11.93;6.20;;;;;;;18.21;29.67;99899.06;4955685;28;20552;-72
2021/04/24 11:00:10;;;;;;;8.98;6.32;;;;;;;18.14;29.64;99892.41;4955154;29;20228;-72
2021/04/24 11:02:44;;;;;;;8.38;6.18;;;;;;;18.30;28.84;99897.41;4955578;29;20279;-71
2021/04/24 11:05:26;;;;;;;12.50;7.35;;;;;;;18.72;28.04;99883.75;4955311;28;20263;-71
2021/04/24 11:08:34;;;;;;;9.13;6.07;;;;;;;18.44;28.00;99878.00;4955486;29;20210;-70
2021/04/24 11:11:03;;;;;;;10.60;6.80;;;;;;;18.37;28.08;99874.06;4948182;28;20200;-72
2021/04/24 11:13:32;;;;;;;60.67;54.13;;;;;;;18.60;28.04;99866.63;4955790;29;20217;-73
2021/04/24 11:16:01;;;;;;;10.73;7.07;;;;;;;18.87;27.91;99868.81;4955654;29;20200;-72
2021/04/24 11:18:28;;;;;;;8.10;6.55;;;;;;;18.71;27.95;99860.22;4955410;29;20194;-71
2021/04/24 11:20:57;;;;;;;10.07;6.65;;;;;;;18.95;27.28;99852.63;4955710;29;20206;-71
2021/04/24 11:23:55;;;;;;;13.65;6.78;;;;;;;19.22;26.93;99855.72;4955036;29;20208;-72
2021/04/24 11:26:49;;;;;;;10.85;6.68;;;;;;;19.11;26.70;99849.41;4955347;29;20213;-71
2021/04/24 11:29:17;;;;;;;11.32;6.88;;;;;;;19.14;26.76;99850.97;4954712;28;20213;-72
2021/04/24 11:32:08;;;;;;;9.18;6.28;;;;;;;19.19;26.86;99853.28;4955406;28;20195;-71